Extreme weather reports worldwide

Lowest temperatures

Station
 
Location
 
Name
 
Wind
Knots
Gust
Knots
Vis
SM
Temp/Dew
C
Baro
inHg
METAR
 
KJVY Jeffersonville, US Clark Regional Airport 7 -35/ 29.98 KJVY 151335Z 20007KT 10SM CLR M35/ A2998 RMK AO2 RUNWAY 18 PREFERRED CALM WIND
NZCM 10 -28/-38 29.37 NZCM 151255Z AUTO 08010KT 040V110 9999 CLR M28/M39 A2937 RMK AO2 SLP954 T12811386 $
BRC SAZS San Carlos de Bariloche, AR San Carlos De Bariloche Airport 3 0.93 -3/-4 30.09 SAZS 151341Z 13003KT 1500 R29/P2000 OVC005 M03/M04 Q1019
FFU SCFT Futaleufu, CL Futaleufú Airport 3 0.56 -2/-2 30.12 SCFT 151300Z 13003KT 090V150 0900 FZFG VV001 M02/M02 Q1020
NQN SAZN Neuquen, AR Presidente Peron Airport 2 -2/-3 30.15 SAZN 151300Z 27002KT CAVOK M02/M03 Q1021

Station
 
Location
 
Name
 
Wind
Knots
Gust
Knots
Vis
SM
Temp/Dew
C
Baro
inHg
METAR
 
ORU SLOR Oruro, BO Juan Mendoza Airport 3 5.59 -1/-8 30.65 SLOR 151300Z 01003KT 9000 NSC M01/M08 Q1038
TNM SCRM Isla Rey Jorge, AQ Teniente Rodolfo Marsh Martin Base 13 3.73 -1/-2 29.38 SCRM 151300Z 33013KT 6000 BKN018 M01/M02 Q0995 NOSIG
WPU SCGZ Puerto Williams, CL Guardiamarina Zañartu Airport 5 -1/-2 29.50 SCGZ 151300Z 23005KT 9999 FEW043 M01/M02 Q0999
ZQN NZQN Queenstown, NZ Queenstown International Airport 3 0/-3 29.73 NZQN 151330Z AUTO 36003KT 9999 FEW170/// BKN200/// 00/M03 Q1007
ZCO SCQP Temuco, CL La Araucanía Airport 2 0.31 0/0 30.18 SCQP 151300Z VRB02KT 0500 R01/0600N FG FEW001 OVC004 00/00 Q1022
SCIC Curico, CL General Freire Airport 0 0.25 0/0 30.12 SCIC 151300Z 00000KT 0400 FG VV002 M00/M00 Q1020
WPR SCFM Porvenir, CL Capitan Fuentes Martinez Airport Airport 2 0/-2 29.53 SCFM 151300Z 03002KT 9999 FEW020 BKN100 M00/M02 Q1000
SCL SCEL Santiago, CL Comodoro Arturo Merino Benítez International Airport 4 2.49 0/-2 30.09 SCEL 151300Z 33004KT 280V360 4000 HZ NSC 00/M02 Q1019 BECMG 5000 HZ
YAI SCCH Chillan, CL Gral. Bernardo O´Higgins Airport 3 0.12 0/0 30.15 SCCH 151300Z 08003KT 0200 FG VV000 00/00 Q1021
USH SAWH Ushuahia, AR Malvinas Argentinas Airport 4 0/-2 29.50 SAWH 151300Z 26004KT CAVOK 00/M02 Q0999
MDZ SAME Mendoza, AR El Plumerillo Airport 0 4.35 0/-5 30.24 SAME 151300Z 00000KT 7000 NSC 00/M05 Q1024
PAAD Deadhorse, US Point Thomson Airstrip 6 5 1/0 29.56 PAAD 151335Z AUTO 26006KT 5SM BR OVC007 01/01 A2956 RMK AO2 T00130007
PMC SCTE Puerto Montt, CL El Tepual Airport 2 3.11 1/1 30.12 SCTE 151333Z VRB02KT 5000 BR NSC 01/01 Q1020 NOSIG
ZAL SCVD Valdivia, CL Pichoy Airport 3 0.19 1/1 30.15 SCVD 151300Z VRB03KT 0300 FG VV001 01/01 Q1021
RGL SAWG Rio Gallegos, AR Piloto Civil N. Fernández Airport 4 1/-2 29.62 SAWG 151300Z 30004KT CAVOK 01/M02 Q1003
CZRP 15 1/0 CZRP 151300Z AUTO 32015KT 02/M00 RMK AO1 PK WND 31021/1213 SLP072 T00161002 53011
CXRB 12 1/1 CXRB 151300Z AUTO 33012KT 02/02 RMK AO1 PK WND 33019/1204 SLP000 T00150016 52015
DYR UHMA Anadyr, RU Ugolny Airport 6 2/0 29.76 UHMA 151330Z 04003MPS CAVOK 02/M00 Q1008 R02/////// NOSIG RMK MID 07004MPS END R02/08003MPS QFE752/1003
BTI PABA Barter Island Lrrs, US Barter Island LRRS Airport 11 4 2/2 29.52 PABA 151326Z 27011KT 4SM BR OVC002 02/02 A2952 RMK AO2 FZRANO
YYQ CYYQ Churchill, CA Churchill Airport 11 0.25 2/2 29.87 CYYQ 151325Z 04011KT 1/4SM R33/P6000FT/N -RA FG FEW002 OVC011 02/02 A2987 RMK SC2SC6 VIS VRB 1/8 - 1/2 SLP120
ATK PATQ Atqasuk, US Atqasuk Edward Burnell Sr Memorial Airport 10 4 2/1 29.59 PATQ 151316Z AUTO 05010KT 4SM -RA BR BKN007 OVC013 02/01 A2959 RMK AO2 CIG 004V009 P0001 FZRANO TSNO
YRB CYRB Resolute Bay, CA Resolute Bay Airport 16 20 2/1 29.52 CYRB 151316Z 33016KT 20SM OVC006 02/01 A2952 RMK ST8 SLP005
QRC SCRG Rancagua, CL De La Independencia Airport 4 4.35 2/0 30.09 SCRG 151300Z 05004KT 7000 NSC 02/M00 Q1019
PNT SCNT Puerto Natales, CL Tte. Julio Gallardo Airport 4 2/0 29.50 SCNT 151300Z 13004KT 9999 -SHRA OVC033 02/00 Q0999
PUQ SCCI Punta Arenas, CL Pdte. Carlos Ibañez del Campo Airport 7 2/1 29.53 SCCI 151300Z 35007KT 9999 -SHRA SCT045 BKN090 02/01 Q1000 NOSIG
MDQ SAZM Mar del Plata, AR Ástor Piazzola International Airport 5 2/-1 30.50 SAZM 151300Z 32005KT CAVOK 02/M01 Q1033
YLT CYLT Alert, CA Alert Airport 6 15 2/0 29.63 CYLT 151300Z 08006KT 15SM FEW022 SCT095 02/M00 A2963 RMK SC1AC3 DENSITY ALT -1114FT SC TR SLP037
PAZK 8 0.25 2/2 29.77 PAZK 151256Z AUTO 26008KT M1/4SM FG OVC002 03/03 A2977 RMK AO2 SLP101 T00280028 $
BKC PABL Buckland, US Buckland Airport 6 2/2 29.60 PABL 151256Z AUTO 15006KT 10SM CLR 03/02 A2960 RMK AO2 SLP023 T00280022
UUK PAKU Kuparuk, US Ugnu-Kuparuk Airport 3 7 3/3 29.55 PAKU 151347Z VRB03KT 7SM R06/P6000FT BKN004 BKN017 OVC024 03/03 A2955
DQH PALP Nuiqsut, US Alpine Airstrip 0 3/2 29.56 PALP 151345Z 00000KT 10SM SCT007 OVC016 03/02 A2956
WTB YBWW Toowoomba, AU Toowoomba Wellcamp Airport 7 3/1 29.85 YBWW 151330Z AUTO 27007KT 9999 // NCD 03/01 Q1011 RF00.0/000.0
SCC PASC Deadhorse, US Deadhorse Airport 4 3/1 29.53 PASC 151321Z 27004KT 10SM SCT005 OVC011 03/02 A2953 RMK AO2 T00330017 PNO
CAM SLCA Camiri, BO Camiri Airport 0 3/-2 30.44 SLCA 151300Z 00000KT 9999 NSC 03/M02 Q1031
SCSN Santo Domingo, CL Santo Domingo Airport 5 0.22 3/3 30.12 SCSN 151300Z 18005KT 140V220 0350 FG OVC002 03/03 Q1020
ZOS SCJO Osorno, CL Cañal Bajo Carlos - Hott Siebert Airport 1 0.19 3/3 30.15 SCJO 151300Z 03001KT 0300 FG VV000 03/03 Q1021
BBA SCBA Balmaceda, CL Balmaceda Airport 6 3/1 29.91 SCBA 151300Z 32006KT 9999 FEW010 BKN035 OVC170 03/01 Q1013
CWKM 6 3/3 29.49 CWKM 151300Z AUTO 27006KT ////SM ////// 03/03 A2949
PIZ PPIZ Point Lay, US Point Lay LRRS Airport 12 8 3/2 29.62 PPIZ 151256Z AUTO 04012KT 8SM -RA BKN007 OVC012 03/03 A2962 RMK AO2 SLP033 P0001 T00330028
SVA PASA Savoonga, US Savoonga Airport 12 3/3 29.66 PASA 151256Z AUTO 35012KT 10SM OVC004 04/03 A2966 RMK AO2 RAB1157E17 SLP044 P0000 T00390033
PHO PAPO Point Hope, US Point Hope Airport 19 6 3/3 29.56 PAPO 151256Z AUTO 02019KT 6SM BR OVC018 04/03 A2956 RMK AO2 SLP008 T00390033
DRG PADE Deering, US Deering Airport 0 3/2 29.55 PADE 151253Z AUTO 00000KT 10SM CLR 03/02 A2955 RMK AO2 SLP005 T00330022 TSNO $
GOH BGGH Nuuk, GL Godthaab / Nuuk Airport 6 3/2 29.76 BGGH 151250Z 01006KT 320V040 9999 BKN004 BKN008 03/02 Q1008
WAA PAIW Wales, US Wales Airport 14 5 4/4 PAIW 151336Z AUTO 35014KT 5SM -RA BR OVC007 04/04 RMK AO2 CIG 005V010 PNO $
TMW YSTW Tamworth, AU Tamworth Airport 8 4/2 29.82 YSTW 151330Z AUTO 33008KT 9999 // BKN063 04/02 Q1010 RF00.0/000.0